createdAt,value
2018-02-10T00:01:47.431Z,2.20
2018-02-10T00:04:14.955Z,2.20
2018-02-10T00:06:42.400Z,2.20
2018-02-10T00:09:10.614Z,2.20
2018-02-10T00:11:38.042Z,2.20
2018-02-10T00:14:05.504Z,2.20
2018-02-10T00:16:33.724Z,2.20
2018-02-10T00:19:01.169Z,2.20
2018-02-10T00:21:29.706Z,2.10
2018-02-10T00:23:57.920Z,2.10
2018-02-10T00:26:25.359Z,2.10
2018-02-10T00:28:52.804Z,2.20
2018-02-10T00:31:20.260Z,2.20
2018-02-10T00:33:48.470Z,2.20
2018-02-10T00:36:15.922Z,2.20
2018-02-10T00:38:43.360Z,2.20
2018-02-10T00:41:10.805Z,2.20
2018-02-10T00:43:38.249Z,2.10
2018-02-10T00:46:06.494Z,2.10
2018-02-10T00:48:33.941Z,2.10
2018-02-10T00:51:01.399Z,2.20
2018-02-10T00:53:29.612Z,2.20
2018-02-10T00:55:57.060Z,2.20
2018-02-10T00:58:24.488Z,2.20
2018-02-10T01:00:51.936Z,2.10
2018-02-10T01:03:19.373Z,2.10
2018-02-10T01:05:46.818Z,2.10
2018-02-10T01:08:14.260Z,2.20
2018-02-10T01:10:42.480Z,2.20
2018-02-10T01:13:09.935Z,2.20
2018-02-10T01:15:37.368Z,2.20
2018-02-10T01:18:04.812Z,2.20
2018-02-10T01:20:33.025Z,2.30
2018-02-10T01:23:00.478Z,2.30
2018-02-10T01:25:28.910Z,2.30
2018-02-10T01:27:57.127Z,2.30
2018-02-10T01:30:24.563Z,2.30
2018-02-10T01:32:52.007Z,2.30
2018-02-10T01:35:20.206Z,2.30
2018-02-10T01:37:47.640Z,2.30
2018-02-10T01:40:15.872Z,2.30
2018-02-10T01:42:43.305Z,2.30
2018-02-10T01:45:10.749Z,2.40
2018-02-10T01:47:38.197Z,2.40
2018-02-10T01:50:18.244Z,2.40
2018-02-10T01:52:46.448Z,2.40
2018-02-10T01:55:13.892Z,2.40
2018-02-10T01:57:41.333Z,2.40
2018-02-10T02:00:09.542Z,2.40
2018-02-10T02:02:36.987Z,2.40
2018-02-10T02:05:04.424Z,2.40
2018-02-10T02:07:31.868Z,2.40
2018-02-10T02:10:00.083Z,2.40
2018-02-10T02:12:27.523Z,2.40
2018-02-10T02:14:54.968Z,2.40
2018-02-10T02:17:23.171Z,2.30
2018-02-10T02:19:50.605Z,2.40
2018-02-10T02:22:18.042Z,2.30
2018-02-10T02:24:46.262Z,2.30
2018-02-10T02:27:13.692Z,2.30
2018-02-10T02:29:41.900Z,2.30
2018-02-10T02:32:09.344Z,2.30
2018-02-10T02:34:36.779Z,2.30
2018-02-10T02:37:04.990Z,2.30
2018-02-10T02:39:32.449Z,2.30
2018-02-10T02:41:59.884Z,2.30
2018-02-10T02:44:28.366Z,2.30
2018-02-10T02:46:55.799Z,2.30
2018-02-10T02:49:24.018Z,2.30
2018-02-10T02:51:51.458Z,2.30
2018-02-10T02:54:18.910Z,2.30
2018-02-10T02:56:46.349Z,2.40
2018-02-10T02:59:14.554Z,2.40
2018-02-10T03:01:42.991Z,2.40
2018-02-10T03:04:10.433Z,2.40
2018-02-10T03:06:37.870Z,2.40
2018-02-10T03:09:05.319Z,2.30
2018-02-10T03:11:32.751Z,2.30
2018-02-10T03:14:00.200Z,2.40
2018-02-10T03:16:30.411Z,2.40
2018-02-10T03:18:58.623Z,2.40
2018-02-10T03:21:26.080Z,2.40
2018-02-10T03:23:53.524Z,2.40
2018-02-10T03:26:20.973Z,2.40
2018-02-10T03:28:48.425Z,2.40
2018-02-10T03:31:15.872Z,2.40
2018-02-10T03:33:44.082Z,2.40
2018-02-10T03:36:11.533Z,2.40
2018-02-10T03:38:38.948Z,2.40
2018-02-10T03:41:06.379Z,2.40
2018-02-10T03:43:33.828Z,2.40
2018-02-10T03:46:01.262Z,2.40
2018-02-10T03:48:28.710Z,2.40
2018-02-10T03:50:56.187Z,2.40
2018-02-10T03:53:23.637Z,2.40
2018-02-10T03:55:51.081Z,2.40
2018-02-10T03:58:18.525Z,2.40
2018-02-10T04:00:46.730Z,2.50
2018-02-10T04:03:14.183Z,2.40
2018-02-10T04:05:41.639Z,2.40
2018-02-10T04:08:10.090Z,2.40
2018-02-10T04:10:38.306Z,2.40
2018-02-10T04:13:05.749Z,2.40
2018-02-10T04:15:33.191Z,2.40
2018-02-10T04:18:00.628Z,2.40
2018-02-10T04:20:28.853Z,2.30
2018-02-10T04:22:56.303Z,2.30
2018-02-10T04:25:23.744Z,2.30
2018-02-10T04:27:51.200Z,2.30
2018-02-10T04:30:18.628Z,2.30
2018-02-10T04:32:46.849Z,2.40
2018-02-10T04:35:14.326Z,2.40
2018-02-10T04:37:41.824Z,2.40
2018-02-10T04:40:10.035Z,2.40
2018-02-10T04:42:37.484Z,2.40
2018-02-10T04:45:04.933Z,2.40
2018-02-10T04:47:32.371Z,2.30
2018-02-10T04:50:00.630Z,2.40
2018-02-10T04:52:28.045Z,2.40
2018-02-10T04:54:55.486Z,2.40
2018-02-10T04:57:22.990Z,2.40
2018-02-10T04:59:50.377Z,2.40
2018-02-10T05:02:18.591Z,2.40
2018-02-10T05:04:46.046Z,2.40
2018-02-10T05:07:13.499Z,2.40
2018-02-10T05:09:40.940Z,2.40
2018-02-10T05:12:08.387Z,2.40
2018-02-10T05:14:36.668Z,2.40
2018-02-10T05:17:04.871Z,2.50
2018-02-10T05:19:32.321Z,2.50
2018-02-10T05:21:59.848Z,2.50
2018-02-10T05:24:28.062Z,2.50
2018-02-10T05:26:55.509Z,2.50
2018-02-10T05:29:22.966Z,2.50
2018-02-10T05:31:50.411Z,2.50
2018-02-10T05:34:17.868Z,2.50
2018-02-10T05:36:45.312Z,2.40
2018-02-10T05:39:13.530Z,2.40
2018-02-10T05:41:41.044Z,2.40
2018-02-10T05:44:09.258Z,2.40
2018-02-10T05:46:36.699Z,2.40
2018-02-10T05:49:04.152Z,2.40
2018-02-10T05:51:31.588Z,2.40
2018-02-10T05:53:59.806Z,2.40
2018-02-10T05:56:27.265Z,2.40
2018-02-10T05:58:54.698Z,2.40
2018-02-10T06:01:22.157Z,2.50
2018-02-10T06:03:49.598Z,2.50
2018-02-10T06:06:17.884Z,2.30
2018-02-10T06:08:45.374Z,2.30
2018-02-10T06:11:12.827Z,2.30
2018-02-10T06:13:40.267Z,2.30
2018-02-10T06:16:07.817Z,2.30
2018-02-10T06:18:36.080Z,2.30
2018-02-10T06:21:04.424Z,2.30
2018-02-10T06:23:31.919Z,2.30
2018-02-10T06:26:00.220Z,2.40
2018-02-10T06:28:27.655Z,2.40
2018-02-10T06:30:55.937Z,2.30
2018-02-10T06:33:24.140Z,2.20
2018-02-10T06:35:51.579Z,2.20
2018-02-10T06:38:19.127Z,2.20
2018-02-10T06:40:47.339Z,2.20
2018-02-10T06:43:14.808Z,2.20
2018-02-10T06:45:42.250Z,2.20
2018-02-10T06:48:09.719Z,2.20
2018-02-10T06:50:37.169Z,2.30
2018-02-10T06:53:04.605Z,2.30
2018-02-10T06:55:32.076Z,2.20
2018-02-10T06:57:59.526Z,2.30
2018-02-10T07:00:26.984Z,2.30
2018-02-10T07:02:54.419Z,2.30
2018-02-10T07:05:23.341Z,2.30
2018-02-10T07:07:50.751Z,2.20
2018-02-10T07:10:18.953Z,2.40
2018-02-10T07:12:46.409Z,2.30
2018-02-10T07:15:14.627Z,2.40
2018-02-10T07:17:42.095Z,2.40
2018-02-10T07:20:09.547Z,2.50
2018-02-10T07:22:37.206Z,2.50
2018-02-10T07:25:04.651Z,2.60
2018-02-10T07:27:33.424Z,2.60
2018-02-10T07:30:00.875Z,2.60
2018-02-10T07:32:28.309Z,2.60
2018-02-10T07:34:58.528Z,2.60
2018-02-10T07:37:26.749Z,2.70
2018-02-10T07:39:54.198Z,2.70
2018-02-10T07:42:21.666Z,2.60
2018-02-10T07:44:49.092Z,2.70
2018-02-10T07:47:16.537Z,2.70
2018-02-10T07:49:43.984Z,2.70
2018-02-10T07:52:12.198Z,2.70
2018-02-10T07:54:39.653Z,2.70
2018-02-10T07:57:07.100Z,2.70
2018-02-10T07:59:34.540Z,2.70
2018-02-10T08:02:02.012Z,2.70
2018-02-10T08:04:29.445Z,2.70
2018-02-10T08:06:56.883Z,2.80
2018-02-10T08:09:29.395Z,2.80
2018-02-10T08:12:03.971Z,2.90
2018-02-10T08:14:32.388Z,2.90
2018-02-10T08:17:00.595Z,3.00
2018-02-10T08:19:28.036Z,3.00
2018-02-10T08:21:55.468Z,3.00
2018-02-10T08:24:25.687Z,3.00
2018-02-10T08:26:53.898Z,3.00
2018-02-10T08:29:21.348Z,3.00
2018-02-10T08:31:48.792Z,3.10
2018-02-10T08:34:16.234Z,3.10
2018-02-10T08:36:44.439Z,3.10
2018-02-10T08:39:11.890Z,3.10
2018-02-10T08:41:40.344Z,3.10
2018-02-10T08:44:08.560Z,3.20
2018-02-10T08:46:35.994Z,3.10
2018-02-10T08:49:03.450Z,3.20
2018-02-10T08:51:30.892Z,3.20
2018-02-10T08:53:59.137Z,3.20
2018-02-10T08:56:26.551Z,3.20
2018-02-10T08:58:53.996Z,3.10
2018-02-10T09:01:21.433Z,3.10
2018-02-10T09:03:48.867Z,3.10
2018-02-10T09:06:17.285Z,3.10
2018-02-10T09:08:48.719Z,3.20
2018-02-10T09:11:16.155Z,3.20
2018-02-10T09:13:43.596Z,3.20
2018-02-10T09:16:18.155Z,3.30
2018-02-10T09:18:45.591Z,3.30
2018-02-10T09:21:13.044Z,3.40
2018-02-10T09:23:40.499Z,3.40
2018-02-10T09:26:07.952Z,3.50
2018-02-10T09:28:35.394Z,3.60
2018-02-10T09:31:02.860Z,3.60
2018-02-10T09:33:30.292Z,3.70
2018-02-10T09:35:57.744Z,3.60
2018-02-10T09:38:25.180Z,3.50
2018-02-10T09:40:54.383Z,3.60
2018-02-10T09:43:22.588Z,3.60
2018-02-10T09:45:50.033Z,3.60
2018-02-10T09:48:17.463Z,3.70
2018-02-10T09:50:45.684Z,3.80
2018-02-10T09:53:13.129Z,3.80
2018-02-10T09:55:40.571Z,3.80
2018-02-10T09:58:08.016Z,3.80
2018-02-10T10:00:36.220Z,3.80
2018-02-10T10:03:03.670Z,3.80
2018-02-10T10:05:31.113Z,3.80
2018-02-10T10:08:01.442Z,4.00
2018-02-10T10:10:29.652Z,4.00
2018-02-10T10:12:57.376Z,4.00
2018-02-10T10:15:25.579Z,4.20
2018-02-10T10:17:53.019Z,4.20
2018-02-10T10:20:21.474Z,4.10
2018-02-10T10:22:48.951Z,4.10
2018-02-10T10:25:17.209Z,4.20
2018-02-10T10:27:45.492Z,4.30
2018-02-10T10:30:13.767Z,4.30
2018-02-10T10:32:43.072Z,4.40
2018-02-10T10:35:11.356Z,4.40
2018-02-10T10:37:38.795Z,4.40
2018-02-10T10:40:06.259Z,4.50
2018-02-10T10:42:34.541Z,4.60
2018-02-10T10:45:02.752Z,4.60
2018-02-10T10:47:30.276Z,4.60
2018-02-10T10:49:58.468Z,4.60
2018-02-10T10:52:26.932Z,4.60
2018-02-10T10:54:55.140Z,4.70
2018-02-10T10:57:22.591Z,4.60
2018-02-10T10:59:50.012Z,4.70
2018-02-10T11:02:18.235Z,4.80
2018-02-10T11:04:45.691Z,4.80
2018-02-10T11:07:13.130Z,4.90
2018-02-10T11:09:40.666Z,4.90
2018-02-10T11:12:08.874Z,4.90
2018-02-10T11:14:36.303Z,4.90
2018-02-10T11:17:05.335Z,4.90
2018-02-10T11:19:32.772Z,5.00
2018-02-10T11:22:00.220Z,5.00
2018-02-10T11:24:27.652Z,4.90
2018-02-10T11:26:55.100Z,4.90
2018-02-10T11:29:22.549Z,4.80
2018-02-10T11:31:49.994Z,4.80
2018-02-10T11:34:17.431Z,4.80
2018-02-10T11:36:44.881Z,4.80
2018-02-10T11:39:12.312Z,4.80
2018-02-10T11:41:40.518Z,4.90
2018-02-10T11:44:07.952Z,4.90
2018-02-10T11:46:35.393Z,4.80
2018-02-10T11:49:03.602Z,4.80
2018-02-10T11:51:31.072Z,4.80
2018-02-10T11:53:58.521Z,4.80
2018-02-10T11:56:25.961Z,4.80
2018-02-10T11:58:53.392Z,4.80
2018-02-10T12:01:21.611Z,4.80
2018-02-10T12:03:49.061Z,4.80
2018-02-10T12:06:16.592Z,4.60
2018-02-10T12:08:44.808Z,4.80
2018-02-10T12:11:12.347Z,4.80
2018-02-10T12:13:43.670Z,4.70
2018-02-10T12:16:11.960Z,4.70
2018-02-10T12:18:39.459Z,4.60
2018-02-10T12:21:06.905Z,4.70
2018-02-10T12:23:34.338Z,4.60
2018-02-10T12:26:01.785Z,4.60
2018-02-10T12:28:30.052Z,4.60
2018-02-10T12:30:58.252Z,4.60
2018-02-10T12:33:25.703Z,4.60
2018-02-10T12:35:53.145Z,4.60
2018-02-10T12:38:21.424Z,4.70
2018-02-10T12:40:49.640Z,4.70
2018-02-10T12:43:17.083Z,4.70
2018-02-10T12:45:44.509Z,4.70
2018-02-10T12:51:13.643Z,4.70
2018-02-10T12:53:41.844Z,4.60
2018-02-10T12:56:09.280Z,4.60
2018-02-10T12:58:36.723Z,4.70
2018-02-10T13:01:04.931Z,4.80
2018-02-10T13:03:32.371Z,4.70
2018-02-10T13:05:59.807Z,4.70
2018-02-10T13:08:28.088Z,4.90
2018-02-10T13:10:56.295Z,4.90
2018-02-10T13:13:23.733Z,4.90
2018-02-10T13:15:51.174Z,5.00
2018-02-10T13:18:19.378Z,5.10
2018-02-10T13:20:46.820Z,5.10
2018-02-10T13:23:14.268Z,5.10
2018-02-10T13:25:41.701Z,5.00
2018-02-10T13:28:09.146Z,5.00
2018-02-10T13:30:36.588Z,5.10
2018-02-10T13:33:04.023Z,5.20
2018-02-10T13:35:31.467Z,5.00
2018-02-10T13:37:58.931Z,5.10
2018-02-10T13:40:27.129Z,5.00
2018-02-10T13:42:54.594Z,5.00
2018-02-10T13:45:22.009Z,5.00
2018-02-10T13:47:49.444Z,5.00
2018-02-10T13:50:17.669Z,4.90
2018-02-10T13:52:45.103Z,4.90
2018-02-10T13:55:12.555Z,4.90
2018-02-10T13:57:40.000Z,4.80
2018-02-10T14:00:08.216Z,4.80
2018-02-10T14:02:35.682Z,4.80
2018-02-10T14:05:03.138Z,4.90
2018-02-10T14:07:30.579Z,4.90
2018-02-10T14:09:58.020Z,4.90
2018-02-10T14:12:25.454Z,5.00
2018-02-10T14:14:53.691Z,4.90
2018-02-10T14:17:21.142Z,4.90
2018-02-10T14:19:48.598Z,4.90
2018-02-10T14:22:16.045Z,4.90
2018-02-10T14:24:43.494Z,4.80
2018-02-10T14:27:17.154Z,4.80
2018-02-10T14:29:45.346Z,4.60
2018-02-10T14:32:12.791Z,4.60
2018-02-10T14:34:40.999Z,4.60
2018-02-10T14:37:08.502Z,4.70
2018-02-10T14:39:36.020Z,4.60
2018-02-10T14:42:03.482Z,4.60
2018-02-10T14:44:30.924Z,4.60
2018-02-10T14:46:58.373Z,4.60
2018-02-10T14:49:25.797Z,4.60
2018-02-10T14:51:53.344Z,4.50
2018-02-10T14:54:20.774Z,4.50
2018-02-10T14:56:48.224Z,4.50
2018-02-10T14:59:15.654Z,4.60
2018-02-10T15:01:43.095Z,4.70
2018-02-10T15:04:11.314Z,4.70
2018-02-10T15:06:38.768Z,4.70
2018-02-10T15:09:06.204Z,4.80
2018-02-10T15:11:34.405Z,4.80
2018-02-10T15:14:01.860Z,4.80
2018-02-10T15:16:29.293Z,4.90
2018-02-10T15:18:56.728Z,4.80
2018-02-10T15:21:25.947Z,4.80
2018-02-10T15:23:53.392Z,4.80
2018-02-10T15:26:21.604Z,4.70
2018-02-10T15:28:49.063Z,4.60
2018-02-10T15:34:27.990Z,4.70
2018-02-10T15:36:55.435Z,4.60
2018-02-10T15:39:23.640Z,4.60
2018-02-10T15:41:51.101Z,4.60
2018-02-10T15:44:18.634Z,4.70
2018-02-10T15:46:46.860Z,4.70
2018-02-10T15:49:14.314Z,4.60
2018-02-10T15:51:41.775Z,4.70
2018-02-10T15:54:09.219Z,4.70
2018-02-10T15:56:36.665Z,4.70
2018-02-10T15:59:04.156Z,4.80
2018-02-10T16:01:31.569Z,4.80
2018-02-10T16:03:58.996Z,4.80
2018-02-10T16:06:27.207Z,4.90
2018-02-10T16:08:54.661Z,4.80
2018-02-10T16:11:22.116Z,4.90
2018-02-10T16:13:49.563Z,4.90
2018-02-10T16:16:17.008Z,4.90
2018-02-10T16:18:44.459Z,4.90
2018-02-10T16:21:12.690Z,4.90
2018-02-10T16:23:40.193Z,4.90
2018-02-10T16:26:08.406Z,4.90
2018-02-10T16:28:35.860Z,4.90
2018-02-10T16:31:03.310Z,4.90
2018-02-10T16:33:30.749Z,4.90
2018-02-10T16:35:58.192Z,4.90
2018-02-10T16:38:27.525Z,4.90
2018-02-10T16:40:54.960Z,4.90
2018-02-10T16:43:22.413Z,4.90
2018-02-10T16:45:50.630Z,4.90
2018-02-10T16:48:18.071Z,4.90
2018-02-10T16:50:45.535Z,4.80
2018-02-10T16:53:12.994Z,4.80
2018-02-10T16:55:40.435Z,4.80
2018-02-10T16:58:07.877Z,4.80
2018-02-10T17:00:36.099Z,4.70
2018-02-10T17:03:03.549Z,4.70
2018-02-10T17:05:30.993Z,4.80
2018-02-10T17:07:58.565Z,4.80
2018-02-10T17:12:49.907Z,4.70
2018-02-10T17:15:17.364Z,4.70
2018-02-10T17:17:44.816Z,4.70
2018-02-10T17:20:12.245Z,4.80
2018-02-10T17:22:40.731Z,4.80
2018-02-10T17:25:08.169Z,4.70
2018-02-10T17:27:36.376Z,4.50
2018-02-10T17:30:03.829Z,4.50
2018-02-10T17:32:31.284Z,4.50
2018-02-10T17:34:58.734Z,4.50
2018-02-10T17:37:26.200Z,4.50
2018-02-10T17:39:53.658Z,4.50
2018-02-10T17:42:21.112Z,4.50
2018-02-10T17:44:48.560Z,4.50
2018-02-10T17:47:16.005Z,4.50
2018-02-10T17:49:43.503Z,4.50
2018-02-10T17:52:10.945Z,4.50
2018-02-10T17:54:38.397Z,4.50
2018-02-10T17:57:05.866Z,4.50
2018-02-10T17:59:33.304Z,4.50
2018-02-10T18:02:00.852Z,4.50
2018-02-10T18:04:29.073Z,4.60
2018-02-10T18:06:57.279Z,4.50
2018-02-10T18:09:24.716Z,4.50
2018-02-10T18:11:52.155Z,4.50
2018-02-10T18:14:19.606Z,4.60
2018-02-10T18:16:47.051Z,4.60
2018-02-10T18:19:14.573Z,4.60
2018-02-10T18:21:41.952Z,4.60
2018-02-10T18:24:09.405Z,4.50
2018-02-10T18:26:36.912Z,4.60
2018-02-10T18:29:05.062Z,4.50
2018-02-10T18:31:32.514Z,4.50
2018-02-10T18:33:59.965Z,4.50
2018-02-10T18:36:27.427Z,4.50
2018-02-10T18:38:54.889Z,4.40
2018-02-10T18:41:22.344Z,4.40
2018-02-10T18:43:49.784Z,4.40
2018-02-10T18:46:17.232Z,4.50
2018-02-10T18:48:44.677Z,4.50
2018-02-10T18:51:12.908Z,4.50
2018-02-10T18:53:40.351Z,4.40
2018-02-10T18:56:08.622Z,4.50
2018-02-10T18:58:36.049Z,4.50
2018-02-10T19:01:04.262Z,4.40
2018-02-10T19:03:31.701Z,4.40
2018-02-10T19:06:04.461Z,4.50
2018-02-10T19:08:32.725Z,4.50
2018-02-10T19:11:00.206Z,4.50
2018-02-10T19:13:28.440Z,4.40
2018-02-10T19:15:55.943Z,4.40
2018-02-10T19:18:24.171Z,4.40
2018-02-10T19:20:51.607Z,4.40
2018-02-10T19:23:19.091Z,4.40
2018-02-10T19:25:46.549Z,4.30
2018-02-10T19:28:14.400Z,4.30
2018-02-10T19:30:41.842Z,4.30
2018-02-10T19:33:10.323Z,4.20
2018-02-10T19:35:37.772Z,4.20
2018-02-10T19:38:05.224Z,4.20
2018-02-10T19:40:33.672Z,4.20
2018-02-10T19:43:01.998Z,4.20
2018-02-10T19:45:29.449Z,4.20
2018-02-10T19:48:00.472Z,4.30
2018-02-10T19:50:27.925Z,4.30
2018-02-10T19:52:55.352Z,4.20
2018-02-10T19:55:22.809Z,4.20
2018-02-10T19:57:50.249Z,4.20
2018-02-10T20:00:23.777Z,4.30
2018-02-10T20:02:51.989Z,4.30
2018-02-10T20:05:19.441Z,4.30
2018-02-10T20:07:46.881Z,4.30
2018-02-10T20:10:14.368Z,4.20
2018-02-10T20:12:41.907Z,4.20
2018-02-10T20:15:09.352Z,4.30
2018-02-10T20:17:36.794Z,4.30
2018-02-10T20:20:05.015Z,4.20
2018-02-10T20:22:32.497Z,4.10
2018-02-10T20:24:59.949Z,4.10
2018-02-10T20:27:27.407Z,4.10
2018-02-10T20:29:54.852Z,4.00
2018-02-10T20:32:22.344Z,4.00
2018-02-10T20:34:49.787Z,4.10
2018-02-10T20:37:18.214Z,4.10
2018-02-10T20:39:45.644Z,4.10
2018-02-10T20:42:13.083Z,4.10
2018-02-10T20:44:40.525Z,4.10
2018-02-10T20:47:08.023Z,4.10
2018-02-10T20:49:35.455Z,4.10
2018-02-10T20:52:02.922Z,4.20
2018-02-10T20:54:30.433Z,4.20
2018-02-10T20:56:57.871Z,4.20
2018-02-10T20:59:26.170Z,4.20
2018-02-10T21:01:53.615Z,4.20
2018-02-10T21:04:21.087Z,4.20
2018-02-10T21:06:48.530Z,4.20
2018-02-10T21:09:15.985Z,4.20
2018-02-10T21:11:43.430Z,4.20
2018-02-10T21:14:11.718Z,4.20
2018-02-10T21:16:39.902Z,4.20
2018-02-10T21:19:07.346Z,4.10
2018-02-10T21:21:34.796Z,4.20
2018-02-10T21:24:03.012Z,4.10
2018-02-10T21:26:31.478Z,4.20
2018-02-10T21:28:58.978Z,4.10
2018-02-10T21:31:26.416Z,4.10
2018-02-10T21:33:53.876Z,4.10
2018-02-10T21:36:21.294Z,4.20
2018-02-10T21:38:48.759Z,4.10
2018-02-10T21:41:16.192Z,4.10
2018-02-10T21:43:43.635Z,4.00
2018-02-10T21:46:11.867Z,3.90
2018-02-10T21:48:41.342Z,3.80
2018-02-10T21:51:08.775Z,3.80
2018-02-10T21:53:41.063Z,3.70
2018-02-10T21:56:09.281Z,3.70
2018-02-10T21:58:36.728Z,3.70
2018-02-10T22:01:04.185Z,3.70
2018-02-10T22:03:31.620Z,3.70
2018-02-10T22:05:59.093Z,3.70
2018-02-10T22:08:26.535Z,3.60
2018-02-10T22:10:53.981Z,3.60
2018-02-10T22:13:21.425Z,3.70
2018-02-10T22:15:49.735Z,3.60
2018-02-10T22:18:17.163Z,3.60
2018-02-10T22:20:46.394Z,3.60
2018-02-10T22:23:14.823Z,3.60
2018-02-10T22:25:42.271Z,3.60
2018-02-10T22:28:09.724Z,3.50
2018-02-10T22:30:37.185Z,3.50
2018-02-10T22:33:04.633Z,3.50
2018-02-10T22:35:32.083Z,3.40
2018-02-10T22:37:59.595Z,3.40
2018-02-10T22:40:27.058Z,3.30
2018-02-10T22:42:55.266Z,3.10
2018-02-10T22:45:22.813Z,3.10
2018-02-10T22:47:50.235Z,3.10
2018-02-10T22:50:18.469Z,3.10
2018-02-10T22:52:45.930Z,3.10
2018-02-10T22:55:13.371Z,3.10
2018-02-10T22:57:40.878Z,3.00
2018-02-10T23:00:08.307Z,3.00
2018-02-10T23:02:35.768Z,2.90
2018-02-10T23:05:03.260Z,2.90
2018-02-10T23:07:31.475Z,2.80
2018-02-10T23:09:58.933Z,2.80
2018-02-10T23:12:26.388Z,2.70
2018-02-10T23:14:53.825Z,2.70
2018-02-10T23:17:21.285Z,2.70
2018-02-10T23:19:48.818Z,2.70
2018-02-10T23:22:17.030Z,2.80
2018-02-10T23:24:44.489Z,2.80
2018-02-10T23:27:11.945Z,2.70
2018-02-10T23:29:39.385Z,2.70
2018-02-10T23:32:06.832Z,2.80
2018-02-10T23:34:34.270Z,2.80
2018-02-10T23:37:02.494Z,2.80
2018-02-10T23:39:29.949Z,2.80
2018-02-10T23:41:57.406Z,2.80
2018-02-10T23:44:24.860Z,2.70
2018-02-10T23:46:52.319Z,2.70
2018-02-10T23:49:19.775Z,2.80
2018-02-10T23:51:47.221Z,2.80
2018-02-10T23:54:14.689Z,2.80
2018-02-10T23:56:42.139Z,2.80
2018-02-10T23:59:09.607Z,2.80
